sensor_id;sensor_type;location;lat;lon;timestamp;temperature;humidity
60965;DHT22;46834;51.100;6.886;2023-03-16T00:00:24;4.70;38.70
60965;DHT22;46834;51.100;6.886;2023-03-16T00:02:50;4.70;38.80
60965;DHT22;46834;51.100;6.886;2023-03-16T00:05:15;4.70;38.80
60965;DHT22;46834;51.100;6.886;2023-03-16T00:07:41;4.70;38.90
60965;DHT22;46834;51.100;6.886;2023-03-16T00:10:09;4.70;38.90
60965;DHT22;46834;51.100;6.886;2023-03-16T00:12:37;4.60;38.90
60965;DHT22;46834;51.100;6.886;2023-03-16T00:15:03;4.60;38.90
60965;DHT22;46834;51.100;6.886;2023-03-16T00:17:29;4.60;39.00
60965;DHT22;46834;51.100;6.886;2023-03-16T00:19:56;4.60;38.90
60965;DHT22;46834;51.100;6.886;2023-03-16T00:22:24;4.60;39.00
60965;DHT22;46834;51.100;6.886;2023-03-16T00:24:52;4.60;39.00
60965;DHT22;46834;51.100;6.886;2023-03-16T00:27:19;4.60;39.10
60965;DHT22;46834;51.100;6.886;2023-03-16T00:29:47;4.70;39.10
60965;DHT22;46834;51.100;6.886;2023-03-16T00:32:19;4.50;39.00
60965;DHT22;46834;51.100;6.886;2023-03-16T00:34:47;4.50;39.00
60965;DHT22;46834;51.100;6.886;2023-03-16T00:37:15;4.50;39.00
60965;DHT22;46834;51.100;6.886;2023-03-16T00:39:43;4.50;39.10
60965;DHT22;46834;51.100;6.886;2023-03-16T00:42:11;4.50;39.10
60965;DHT22;46834;51.100;6.886;2023-03-16T00:44:39;4.50;39.10
60965;DHT22;46834;51.100;6.886;2023-03-16T00:47:06;4.50;39.10
60965;DHT22;46834;51.100;6.886;2023-03-16T00:49:34;4.50;39.20
60965;DHT22;46834;51.100;6.886;2023-03-16T00:52:01;4.50;39.30
60965;DHT22;46834;51.100;6.886;2023-03-16T00:54:31;4.50;39.90
60965;DHT22;46834;51.100;6.886;2023-03-16T00:57:01;4.40;39.20
60965;DHT22;46834;51.100;6.886;2023-03-16T00:59:27;4.50;39.40
60965;DHT22;46834;51.100;6.886;2023-03-16T01:01:54;4.50;39.30
60965;DHT22;46834;51.100;6.886;2023-03-16T01:04:20;4.50;39.40
60965;DHT22;46834;51.100;6.886;2023-03-16T01:06:48;4.50;39.40
60965;DHT22;46834;51.100;6.886;2023-03-16T01:09:14;4.50;39.30
60965;DHT22;46834;51.100;6.886;2023-03-16T01:11:41;4.50;39.30
60965;DHT22;46834;51.100;6.886;2023-03-16T01:14:10;4.50;39.30
60965;DHT22;46834;51.100;6.886;2023-03-16T01:16:37;4.50;39.30
60965;DHT22;46834;51.100;6.886;2023-03-16T01:19:02;4.50;39.30
60965;DHT22;46834;51.100;6.886;2023-03-16T01:24:04;4.50;39.30
60965;DHT22;46834;51.100;6.886;2023-03-16T01:26:30;4.50;39.30
60965;DHT22;46834;51.100;6.886;2023-03-16T01:28:56;4.50;39.30
60965;DHT22;46834;51.100;6.886;2023-03-16T01:31:22;4.50;39.30
60965;DHT22;46834;51.100;6.886;2023-03-16T01:33:48;4.50;39.40
60965;DHT22;46834;51.100;6.886;2023-03-16T01:36:16;4.50;39.40
60965;DHT22;46834;51.100;6.886;2023-03-16T01:38:43;4.50;39.40
60965;DHT22;46834;51.100;6.886;2023-03-16T01:41:09;4.50;39.40
60965;DHT22;46834;51.100;6.886;2023-03-16T01:43:39;4.50;39.40
60965;DHT22;46834;51.100;6.886;2023-03-16T01:48:50;4.50;39.40
60965;DHT22;46834;51.100;6.886;2023-03-16T01:54:24;4.50;39.50
60965;DHT22;46834;51.100;6.886;2023-03-16T02:00:18;4.50;39.50
60965;DHT22;46834;51.100;6.886;2023-03-16T02:02:52;4.70;39.50
60965;DHT22;46834;51.100;6.886;2023-03-16T02:08:01;4.50;39.40
60965;DHT22;46834;51.100;6.886;2023-03-16T02:10:29;4.50;39.30
60965;DHT22;46834;51.100;6.886;2023-03-16T02:12:57;4.50;39.40
60965;DHT22;46834;51.100;6.886;2023-03-16T02:15:24;4.40;39.30
60965;DHT22;46834;51.100;6.886;2023-03-16T02:17:50;4.40;39.40
60965;DHT22;46834;51.100;6.886;2023-03-16T02:20:35;4.40;39.40
60965;DHT22;46834;51.100;6.886;2023-03-16T02:23:09;4.40;39.50
60965;DHT22;46834;51.100;6.886;2023-03-16T02:28:33;4.40;39.40
60965;DHT22;46834;51.100;6.886;2023-03-16T02:31:03;4.40;39.40
60965;DHT22;46834;51.100;6.886;2023-03-16T02:33:31;4.40;39.50
60965;DHT22;46834;51.100;6.886;2023-03-16T02:35:58;4.40;39.50
60965;DHT22;46834;51.100;6.886;2023-03-16T02:38:24;4.30;39.40
60965;DHT22;46834;51.100;6.886;2023-03-16T02:41:14;4.40;39.50
60965;DHT22;46834;51.100;6.886;2023-03-16T02:43:56;4.40;39.70
60965;DHT22;46834;51.100;6.886;2023-03-16T02:46:32;4.40;39.70
60965;DHT22;46834;51.100;6.886;2023-03-16T02:49:16;4.40;39.50
60965;DHT22;46834;51.100;6.886;2023-03-16T02:51:49;4.30;39.60
60965;DHT22;46834;51.100;6.886;2023-03-16T02:54:15;4.40;39.50
60965;DHT22;46834;51.100;6.886;2023-03-16T02:56:42;4.40;39.50
60965;DHT22;46834;51.100;6.886;2023-03-16T02:59:08;4.40;39.60
60965;DHT22;46834;51.100;6.886;2023-03-16T03:01:35;4.30;39.50
60965;DHT22;46834;51.100;6.886;2023-03-16T03:04:02;4.30;39.50
60965;DHT22;46834;51.100;6.886;2023-03-16T03:06:29;4.30;39.50
60965;DHT22;46834;51.100;6.886;2023-03-16T03:08:57;4.30;39.50
60965;DHT22;46834;51.100;6.886;2023-03-16T03:11:23;4.30;39.60
60965;DHT22;46834;51.100;6.886;2023-03-16T03:13:48;4.30;39.60
60965;DHT22;46834;51.100;6.886;2023-03-16T03:16:14;4.30;39.60
60965;DHT22;46834;51.100;6.886;2023-03-16T03:18:40;4.30;39.60
60965;DHT22;46834;51.100;6.886;2023-03-16T03:21:06;4.30;39.60
60965;DHT22;46834;51.100;6.886;2023-03-16T03:23:32;4.40;39.80
60965;DHT22;46834;51.100;6.886;2023-03-16T03:26:00;4.40;39.70
60965;DHT22;46834;51.100;6.886;2023-03-16T03:28:27;4.40;39.70
60965;DHT22;46834;51.100;6.886;2023-03-16T03:30:53;4.40;39.80
60965;DHT22;46834;51.100;6.886;2023-03-16T03:33:20;4.30;39.60
60965;DHT22;46834;51.100;6.886;2023-03-16T03:35:47;4.40;39.80
60965;DHT22;46834;51.100;6.886;2023-03-16T03:38:18;4.40;39.80
60965;DHT22;46834;51.100;6.886;2023-03-16T03:40:44;4.40;39.70
60965;DHT22;46834;51.100;6.886;2023-03-16T03:43:09;4.40;39.70
60965;DHT22;46834;51.100;6.886;2023-03-16T03:45:35;4.40;39.70
60965;DHT22;46834;51.100;6.886;2023-03-16T03:48:01;4.40;39.70
60965;DHT22;46834;51.100;6.886;2023-03-16T03:50:26;4.40;39.70
60965;DHT22;46834;51.100;6.886;2023-03-16T03:52:52;4.40;39.70
60965;DHT22;46834;51.100;6.886;2023-03-16T03:55:18;4.50;39.80
60965;DHT22;46834;51.100;6.886;2023-03-16T03:57:43;4.40;39.70
60965;DHT22;46834;51.100;6.886;2023-03-16T04:00:10;4.40;39.70
60965;DHT22;46834;51.100;6.886;2023-03-16T04:02:38;4.40;39.70
60965;DHT22;46834;51.100;6.886;2023-03-16T04:05:05;4.40;39.70
60965;DHT22;46834;51.100;6.886;2023-03-16T04:07:31;4.40;39.70
60965;DHT22;46834;51.100;6.886;2023-03-16T04:09:57;4.40;39.70
60965;DHT22;46834;51.100;6.886;2023-03-16T04:12:23;4.40;39.70
60965;DHT22;46834;51.100;6.886;2023-03-16T04:14:49;4.30;39.60
60965;DHT22;46834;51.100;6.886;2023-03-16T04:17:16;4.40;39.70
60965;DHT22;46834;51.100;6.886;2023-03-16T04:19:42;4.30;39.60
60965;DHT22;46834;51.100;6.886;2023-03-16T04:22:08;4.30;39.60
60965;DHT22;46834;51.100;6.886;2023-03-16T04:24:33;4.30;39.60
60965;DHT22;46834;51.100;6.886;2023-03-16T04:27:00;4.30;39.60
60965;DHT22;46834;51.100;6.886;2023-03-16T04:29:27;4.30;39.60
60965;DHT22;46834;51.100;6.886;2023-03-16T04:31:53;4.20;39.60
60965;DHT22;46834;51.100;6.886;2023-03-16T04:34:20;4.30;39.70
60965;DHT22;46834;51.100;6.886;2023-03-16T04:36:53;4.20;39.60
60965;DHT22;46834;51.100;6.886;2023-03-16T04:39:19;4.30;39.80
60965;DHT22;46834;51.100;6.886;2023-03-16T04:41:45;4.20;39.70
60965;DHT22;46834;51.100;6.886;2023-03-16T04:44:11;4.20;39.70
60965;DHT22;46834;51.100;6.886;2023-03-16T04:46:38;4.20;39.70
60965;DHT22;46834;51.100;6.886;2023-03-16T04:49:04;4.20;39.80
60965;DHT22;46834;51.100;6.886;2023-03-16T04:51:33;4.20;39.80
60965;DHT22;46834;51.100;6.886;2023-03-16T04:53:59;4.20;39.80
60965;DHT22;46834;51.100;6.886;2023-03-16T04:56:25;4.20;39.80
60965;DHT22;46834;51.100;6.886;2023-03-16T04:58:51;4.20;39.80
60965;DHT22;46834;51.100;6.886;2023-03-16T05:01:17;4.20;39.80
60965;DHT22;46834;51.100;6.886;2023-03-16T05:03:43;4.30;40.00
60965;DHT22;46834;51.100;6.886;2023-03-16T05:06:11;4.30;40.00
60965;DHT22;46834;51.100;6.886;2023-03-16T05:08:37;4.30;40.00
60965;DHT22;46834;51.100;6.886;2023-03-16T05:11:02;4.30;40.00
60965;DHT22;46834;51.100;6.886;2023-03-16T05:13:28;4.30;40.60
60965;DHT22;46834;51.100;6.886;2023-03-16T05:15:54;4.30;40.00
60965;DHT22;46834;51.100;6.886;2023-03-16T05:18:20;4.30;40.00
60965;DHT22;46834;51.100;6.886;2023-03-16T05:20:51;4.40;40.10
60965;DHT22;46834;51.100;6.886;2023-03-16T05:23:18;4.40;40.10
60965;DHT22;46834;51.100;6.886;2023-03-16T05:25:46;4.50;40.20
60965;DHT22;46834;51.100;6.886;2023-03-16T05:28:12;4.40;40.10
60965;DHT22;46834;51.100;6.886;2023-03-16T05:30:39;4.40;40.10
60965;DHT22;46834;51.100;6.886;2023-03-16T05:33:06;4.40;40.10
60965;DHT22;46834;51.100;6.886;2023-03-16T05:35:33;4.40;40.10
60965;DHT22;46834;51.100;6.886;2023-03-16T05:37:59;4.40;40.10
60965;DHT22;46834;51.100;6.886;2023-03-16T05:40:24;4.40;40.10
60965;DHT22;46834;51.100;6.886;2023-03-16T05:42:54;4.40;40.10
60965;DHT22;46834;51.100;6.886;2023-03-16T05:45:21;4.40;40.20
60965;DHT22;46834;51.100;6.886;2023-03-16T05:47:46;4.50;40.30
60965;DHT22;46834;51.100;6.886;2023-03-16T05:50:13;4.50;40.20
60965;DHT22;46834;51.100;6.886;2023-03-16T05:52:41;4.50;40.20
60965;DHT22;46834;51.100;6.886;2023-03-16T05:55:10;4.50;40.20
60965;DHT22;46834;51.100;6.886;2023-03-16T05:57:37;4.60;40.30
60965;DHT22;46834;51.100;6.886;2023-03-16T06:00:06;4.50;40.30
60965;DHT22;46834;51.100;6.886;2023-03-16T06:02:39;4.50;40.30
60965;DHT22;46834;51.100;6.886;2023-03-16T06:05:06;4.50;40.30
60965;DHT22;46834;51.100;6.886;2023-03-16T06:07:32;4.50;40.30
60965;DHT22;46834;51.100;6.886;2023-03-16T06:09:58;4.50;40.30
60965;DHT22;46834;51.100;6.886;2023-03-16T06:12:24;4.50;40.30
60965;DHT22;46834;51.100;6.886;2023-03-16T06:14:50;4.50;40.30
60965;DHT22;46834;51.100;6.886;2023-03-16T06:17:15;4.50;40.30
60965;DHT22;46834;51.100;6.886;2023-03-16T06:19:41;4.60;40.40
60965;DHT22;46834;51.100;6.886;2023-03-16T06:22:07;4.60;40.40
60965;DHT22;46834;51.100;6.886;2023-03-16T06:24:33;4.60;40.40
60965;DHT22;46834;51.100;6.886;2023-03-16T06:26:58;4.60;40.50
60965;DHT22;46834;51.100;6.886;2023-03-16T06:29:24;4.60;40.50
60965;DHT22;46834;51.100;6.886;2023-03-16T06:31:50;4.70;40.50
60965;DHT22;46834;51.100;6.886;2023-03-16T06:34:17;4.70;40.60
60965;DHT22;46834;51.100;6.886;2023-03-16T06:36:43;4.80;40.60
60965;DHT22;46834;51.100;6.886;2023-03-16T06:39:08;4.80;40.60
60965;DHT22;46834;51.100;6.886;2023-03-16T06:41:34;4.80;40.60
60965;DHT22;46834;51.100;6.886;2023-03-16T06:44:00;4.80;40.60
60965;DHT22;46834;51.100;6.886;2023-03-16T06:46:27;4.90;40.70
60965;DHT22;46834;51.100;6.886;2023-03-16T06:48:52;4.90;40.60
60965;DHT22;46834;51.100;6.886;2023-03-16T06:51:18;5.00;40.70
60965;DHT22;46834;51.100;6.886;2023-03-16T06:53:59;5.00;40.70
60965;DHT22;46834;51.100;6.886;2023-03-16T06:56:25;5.00;40.70
60965;DHT22;46834;51.100;6.886;2023-03-16T06:58:52;5.00;40.70
60965;DHT22;46834;51.100;6.886;2023-03-16T07:01:18;5.10;40.70
60965;DHT22;46834;51.100;6.886;2023-03-16T07:03:43;5.10;40.60
60965;DHT22;46834;51.100;6.886;2023-03-16T07:06:09;5.20;40.70
60965;DHT22;46834;51.100;6.886;2023-03-16T07:08:35;5.10;40.60
60965;DHT22;46834;51.100;6.886;2023-03-16T07:11:00;5.20;40.70
60965;DHT22;46834;51.100;6.886;2023-03-16T07:13:29;5.20;40.70
60965;DHT22;46834;51.100;6.886;2023-03-16T07:15:55;5.10;40.60
60965;DHT22;46834;51.100;6.886;2023-03-16T07:18:20;5.30;40.70
60965;DHT22;46834;51.100;6.886;2023-03-16T07:20:46;5.30;41.40
60965;DHT22;46834;51.100;6.886;2023-03-16T07:23:12;5.30;40.80
60965;DHT22;46834;51.100;6.886;2023-03-16T07:25:38;5.30;40.70
60965;DHT22;46834;51.100;6.886;2023-03-16T07:28:04;5.30;40.70
60965;DHT22;46834;51.100;6.886;2023-03-16T07:30:30;5.40;40.80
60965;DHT22;46834;51.100;6.886;2023-03-16T07:32:56;5.40;40.80
60965;DHT22;46834;51.100;6.886;2023-03-16T07:35:22;5.40;40.80
60965;DHT22;46834;51.100;6.886;2023-03-16T07:37:48;5.40;40.80
60965;DHT22;46834;51.100;6.886;2023-03-16T07:40:15;5.50;40.80
60965;DHT22;46834;51.100;6.886;2023-03-16T07:42:41;5.50;40.80
60965;DHT22;46834;51.100;6.886;2023-03-16T07:45:07;5.50;40.80
60965;DHT22;46834;51.100;6.886;2023-03-16T07:47:33;5.60;40.80
60965;DHT22;46834;51.100;6.886;2023-03-16T07:49:59;5.60;40.80
60965;DHT22;46834;51.100;6.886;2023-03-16T07:52:25;5.60;40.80
60965;DHT22;46834;51.100;6.886;2023-03-16T07:54:53;5.70;40.90
60965;DHT22;46834;51.100;6.886;2023-03-16T07:57:19;5.70;40.90
60965;DHT22;46834;51.100;6.886;2023-03-16T07:59:46;5.70;40.90
60965;DHT22;46834;51.100;6.886;2023-03-16T08:02:17;5.80;41.00
60965;DHT22;46834;51.100;6.886;2023-03-16T08:04:46;5.80;41.00
60965;DHT22;46834;51.100;6.886;2023-03-16T08:07:14;5.90;41.00
60965;DHT22;46834;51.100;6.886;2023-03-16T08:09:40;6.10;40.20
60965;DHT22;46834;51.100;6.886;2023-03-16T08:12:06;6.00;40.10
60965;DHT22;46834;51.100;6.886;2023-03-16T08:14:34;6.00;40.10
60965;DHT22;46834;51.100;6.886;2023-03-16T08:17:02;6.00;40.10
60965;DHT22;46834;51.100;6.886;2023-03-16T08:19:29;6.10;40.10
60965;DHT22;46834;51.100;6.886;2023-03-16T08:21:55;6.10;40.10
60965;DHT22;46834;51.100;6.886;2023-03-16T08:24:23;6.20;40.20
60965;DHT22;46834;51.100;6.886;2023-03-16T08:26:49;6.20;40.20
60965;DHT22;46834;51.100;6.886;2023-03-16T08:29:15;6.30;40.30
60965;DHT22;46834;51.100;6.886;2023-03-16T08:31:40;6.30;40.30
60965;DHT22;46834;51.100;6.886;2023-03-16T08:34:07;6.40;40.30
60965;DHT22;46834;51.100;6.886;2023-03-16T08:36:34;6.40;40.20
60965;DHT22;46834;51.100;6.886;2023-03-16T08:39:02;6.50;40.30
60965;DHT22;46834;51.100;6.886;2023-03-16T08:41:30;6.60;40.30
60965;DHT22;46834;51.100;6.886;2023-03-16T08:43:57;6.60;40.30
60965;DHT22;46834;51.100;6.886;2023-03-16T08:46:24;6.60;40.30
60965;DHT22;46834;51.100;6.886;2023-03-16T08:48:50;6.70;40.30
60965;DHT22;46834;51.100;6.886;2023-03-16T08:51:17;6.80;40.30
60965;DHT22;46834;51.100;6.886;2023-03-16T08:53:44;6.80;40.20
60965;DHT22;46834;51.100;6.886;2023-03-16T08:56:11;6.90;40.30
60965;DHT22;46834;51.100;6.886;2023-03-16T08:58:39;6.90;40.30
60965;DHT22;46834;51.100;6.886;2023-03-16T09:01:12;6.90;40.10
60965;DHT22;46834;51.100;6.886;2023-03-16T09:03:39;7.00;40.20
60965;DHT22;46834;51.100;6.886;2023-03-16T09:06:08;7.00;40.20
60965;DHT22;46834;51.100;6.886;2023-03-16T09:08:35;7.10;40.20
60965;DHT22;46834;51.100;6.886;2023-03-16T09:11:05;7.10;40.10
60965;DHT22;46834;51.100;6.886;2023-03-16T09:13:33;7.10;40.10
60965;DHT22;46834;51.100;6.886;2023-03-16T09:16:00;7.20;40.20
60965;DHT22;46834;51.100;6.886;2023-03-16T09:18:26;7.20;40.10
60965;DHT22;46834;51.100;6.886;2023-03-16T09:20:59;7.40;40.30
60965;DHT22;46834;51.100;6.886;2023-03-16T09:23:27;7.30;40.10
60965;DHT22;46834;51.100;6.886;2023-03-16T09:25:57;7.30;40.20
60965;DHT22;46834;51.100;6.886;2023-03-16T09:28:25;7.40;40.10
60965;DHT22;46834;51.100;6.886;2023-03-16T09:30:53;7.40;40.30
60965;DHT22;46834;51.100;6.886;2023-03-16T09:33:20;7.50;40.40
60965;DHT22;46834;51.100;6.886;2023-03-16T09:35:47;7.60;40.30
60965;DHT22;46834;51.100;6.886;2023-03-16T09:38:13;7.60;40.20
60965;DHT22;46834;51.100;6.886;2023-03-16T09:40:39;7.70;40.30
60965;DHT22;46834;51.100;6.886;2023-03-16T09:46:05;7.90;40.30
60965;DHT22;46834;51.100;6.886;2023-03-16T09:48:48;7.90;40.20
60965;DHT22;46834;51.100;6.886;2023-03-16T09:54:23;8.10;40.30
60965;DHT22;46834;51.100;6.886;2023-03-16T09:57:04;8.10;40.00
60965;DHT22;46834;51.100;6.886;2023-03-16T09:59:36;8.20;40.40
60965;DHT22;46834;51.100;6.886;2023-03-16T10:05:22;8.30;40.10
60965;DHT22;46834;51.100;6.886;2023-03-16T10:17:34;8.60;39.90
60965;DHT22;46834;51.100;6.886;2023-03-16T10:20:17;8.60;40.00
60965;DHT22;46834;51.100;6.886;2023-03-16T10:22:46;8.70;40.00
60965;DHT22;46834;51.100;6.886;2023-03-16T10:25:47;8.70;39.90
60965;DHT22;46834;51.100;6.886;2023-03-16T10:28:23;8.70;39.90
60965;DHT22;46834;51.100;6.886;2023-03-16T10:30:54;8.80;39.90
60965;DHT22;46834;51.100;6.886;2023-03-16T10:36:13;8.80;39.90
60965;DHT22;46834;51.100;6.886;2023-03-16T10:38:53;8.90;39.80
60965;DHT22;46834;51.100;6.886;2023-03-16T10:41:27;8.90;39.70
60965;DHT22;46834;51.100;6.886;2023-03-16T10:46:45;9.00;39.60
60965;DHT22;46834;51.100;6.886;2023-03-16T10:49:41;9.00;39.60
60965;DHT22;46834;51.100;6.886;2023-03-16T10:52:33;9.10;39.60
60965;DHT22;46834;51.100;6.886;2023-03-16T10:55:23;9.20;39.70
60965;DHT22;46834;51.100;6.886;2023-03-16T10:57:55;9.20;39.60
60965;DHT22;46834;51.100;6.886;2023-03-16T11:00:25;9.30;39.80
60965;DHT22;46834;51.100;6.886;2023-03-16T11:02:55;9.40;39.90
60965;DHT22;46834;51.100;6.886;2023-03-16T11:05:35;9.50;39.70
60965;DHT22;46834;51.100;6.886;2023-03-16T11:08:12;9.60;39.70
60965;DHT22;46834;51.100;6.886;2023-03-16T11:10:54;9.70;39.40
60965;DHT22;46834;51.100;6.886;2023-03-16T11:13:47;9.70;39.30
60965;DHT22;46834;51.100;6.886;2023-03-16T11:16:23;9.80;39.30
60965;DHT22;46834;51.100;6.886;2023-03-16T11:18:59;9.80;38.90
60965;DHT22;46834;51.100;6.886;2023-03-16T11:27:24;10.00;39.00
60965;DHT22;46834;51.100;6.886;2023-03-16T11:30:04;10.00;39.20
60965;DHT22;46834;51.100;6.886;2023-03-16T11:32:39;10.10;39.20
60965;DHT22;46834;51.100;6.886;2023-03-16T11:35:16;10.10;38.90
60965;DHT22;46834;51.100;6.886;2023-03-16T11:37:47;10.10;38.80
60965;DHT22;46834;51.100;6.886;2023-03-16T11:51:40;10.30;38.90
60965;DHT22;46834;51.100;6.886;2023-03-16T11:58:09;10.40;39.00
60965;DHT22;46834;51.100;6.886;2023-03-16T12:01:24;10.50;38.80
60965;DHT22;46834;51.100;6.886;2023-03-16T12:07:03;10.60;39.10
60965;DHT22;46834;51.100;6.886;2023-03-16T12:13:17;10.70;38.80
60965;DHT22;46834;51.100;6.886;2023-03-16T12:19:21;10.90;38.80
60965;DHT22;46834;51.100;6.886;2023-03-16T12:22:05;10.90;38.60
60965;DHT22;46834;51.100;6.886;2023-03-16T12:24:42;10.90;38.50
60965;DHT22;46834;51.100;6.886;2023-03-16T12:27:18;11.00;38.60
60965;DHT22;46834;51.100;6.886;2023-03-16T12:29:54;11.10;38.60
60965;DHT22;46834;51.100;6.886;2023-03-16T12:32:54;11.10;38.50
60965;DHT22;46834;51.100;6.886;2023-03-16T12:39:06;11.20;38.10
60965;DHT22;46834;51.100;6.886;2023-03-16T12:44:48;11.30;37.70
60965;DHT22;46834;51.100;6.886;2023-03-16T12:48:00;11.30;37.40
60965;DHT22;46834;51.100;6.886;2023-03-16T12:50:32;11.30;37.50
60965;DHT22;46834;51.100;6.886;2023-03-16T12:52:58;11.30;37.90
60965;DHT22;46834;51.100;6.886;2023-03-16T12:55:38;11.30;37.40
60965;DHT22;46834;51.100;6.886;2023-03-16T12:58:09;11.30;37.30
60965;DHT22;46834;51.100;6.886;2023-03-16T13:00:39;11.30;37.60
60965;DHT22;46834;51.100;6.886;2023-03-16T13:03:20;11.30;37.70
60965;DHT22;46834;51.100;6.886;2023-03-16T13:05:58;11.40;37.40
60965;DHT22;46834;51.100;6.886;2023-03-16T13:08:26;11.50;37.50
60965;DHT22;46834;51.100;6.886;2023-03-16T13:11:06;11.40;37.60
60965;DHT22;46834;51.100;6.886;2023-03-16T13:13:34;11.40;37.40
60965;DHT22;46834;51.100;6.886;2023-03-16T13:16:28;11.40;37.20
60965;DHT22;46834;51.100;6.886;2023-03-16T13:19:28;11.50;37.30
60965;DHT22;46834;51.100;6.886;2023-03-16T13:23:45;11.40;36.90
60965;DHT22;46834;51.100;6.886;2023-03-16T13:27:00;11.60;37.10
60965;DHT22;46834;51.100;6.886;2023-03-16T13:29:31;11.70;36.80
60965;DHT22;46834;51.100;6.886;2023-03-16T13:32:02;11.60;36.90
60965;DHT22;46834;51.100;6.886;2023-03-16T13:34:39;11.80;36.80
60965;DHT22;46834;51.100;6.886;2023-03-16T13:37:15;11.80;36.90
60965;DHT22;46834;51.100;6.886;2023-03-16T13:39:55;11.70;37.10
60965;DHT22;46834;51.100;6.886;2023-03-16T13:42:23;11.80;36.90
60965;DHT22;46834;51.100;6.886;2023-03-16T13:44:53;11.80;37.20
60965;DHT22;46834;51.100;6.886;2023-03-16T13:47:21;11.90;37.10
60965;DHT22;46834;51.100;6.886;2023-03-16T13:49:58;11.80;37.10
60965;DHT22;46834;51.100;6.886;2023-03-16T13:52:34;11.90;37.20
60965;DHT22;46834;51.100;6.886;2023-03-16T13:55:13;11.90;37.20
60965;DHT22;46834;51.100;6.886;2023-03-16T13:57:43;12.00;36.80
60965;DHT22;46834;51.100;6.886;2023-03-16T14:02:56;12.10;36.80
60965;DHT22;46834;51.100;6.886;2023-03-16T14:07:53;12.10;36.50
60965;DHT22;46834;51.100;6.886;2023-03-16T14:10:27;12.10;36.10
60965;DHT22;46834;51.100;6.886;2023-03-16T14:13:06;12.10;36.50
60965;DHT22;46834;51.100;6.886;2023-03-16T14:15:35;12.10;36.50
60965;DHT22;46834;51.100;6.886;2023-03-16T14:18:15;12.30;36.40
60965;DHT22;46834;51.100;6.886;2023-03-16T14:20:52;12.10;36.00
60965;DHT22;46834;51.100;6.886;2023-03-16T14:23:22;12.20;36.20
60965;DHT22;46834;51.100;6.886;2023-03-16T14:25:53;12.30;36.40
60965;DHT22;46834;51.100;6.886;2023-03-16T14:28:32;12.20;36.20
60965;DHT22;46834;51.100;6.886;2023-03-16T16:04:32;12.00;35.90
60965;DHT22;46834;51.100;6.886;2023-03-16T16:06:58;12.00;35.80
60965;DHT22;46834;51.100;6.886;2023-03-16T16:09:26;11.90;35.70
60965;DHT22;46834;51.100;6.886;2023-03-16T16:11:52;11.90;35.90
60965;DHT22;46834;51.100;6.886;2023-03-16T16:14:23;11.80;35.90
60965;DHT22;46834;51.100;6.886;2023-03-16T16:16:49;11.80;35.80
60965;DHT22;46834;51.100;6.886;2023-03-16T16:19:15;11.70;35.80
60965;DHT22;46834;51.100;6.886;2023-03-16T16:21:43;11.70;35.90
60965;DHT22;46834;51.100;6.886;2023-03-16T16:24:09;11.70;36.00
60965;DHT22;46834;51.100;6.886;2023-03-16T16:26:41;11.70;35.90
60965;DHT22;46834;51.100;6.886;2023-03-16T16:29:15;11.70;35.90
60965;DHT22;46834;51.100;6.886;2023-03-16T16:31:43;11.60;35.90
60965;DHT22;46834;51.100;6.886;2023-03-16T16:34:15;11.60;36.00
60965;DHT22;46834;51.100;6.886;2023-03-16T16:36:43;11.60;36.00
60965;DHT22;46834;51.100;6.886;2023-03-16T16:39:09;11.50;36.00
60965;DHT22;46834;51.100;6.886;2023-03-16T16:41:36;11.50;36.00
60965;DHT22;46834;51.100;6.886;2023-03-16T16:44:03;11.50;36.10
60965;DHT22;46834;51.100;6.886;2023-03-16T16:46:39;11.40;36.00
60965;DHT22;46834;51.100;6.886;2023-03-16T16:51:37;11.40;36.20
60965;DHT22;46834;51.100;6.886;2023-03-16T16:54:15;11.20;36.10
60965;DHT22;46834;51.100;6.886;2023-03-16T16:56:47;11.30;36.20
60965;DHT22;46834;51.100;6.886;2023-03-16T16:59:20;11.30;36.30
60965;DHT22;46834;51.100;6.886;2023-03-16T17:01:51;11.30;36.40
60965;DHT22;46834;51.100;6.886;2023-03-16T17:04:24;11.30;36.50
60965;DHT22;46834;51.100;6.886;2023-03-16T17:06:58;11.30;36.50
60965;DHT22;46834;51.100;6.886;2023-03-16T17:09:27;11.20;36.50
60965;DHT22;46834;51.100;6.886;2023-03-16T17:11:54;11.20;36.50
60965;DHT22;46834;51.100;6.886;2023-03-16T17:14:23;11.20;36.50
60965;DHT22;46834;51.100;6.886;2023-03-16T17:16:51;11.20;36.60
60965;DHT22;46834;51.100;6.886;2023-03-16T17:19:20;11.10;36.50
60965;DHT22;46834;51.100;6.886;2023-03-16T17:21:51;11.10;36.60
60965;DHT22;46834;51.100;6.886;2023-03-16T17:24:17;11.10;36.60
60965;DHT22;46834;51.100;6.886;2023-03-16T17:26:45;11.10;36.60
60965;DHT22;46834;51.100;6.886;2023-03-16T17:29:35;11.00;36.60
60965;DHT22;46834;51.100;6.886;2023-03-16T17:32:03;11.00;36.70
60965;DHT22;46834;51.100;6.886;2023-03-16T17:34:38;11.00;36.70
60965;DHT22;46834;51.100;6.886;2023-03-16T17:37:06;10.90;36.60
60965;DHT22;46834;51.100;6.886;2023-03-16T17:39:37;10.90;36.70
60965;DHT22;46834;51.100;6.886;2023-03-16T17:42:15;10.90;36.70
60965;DHT22;46834;51.100;6.886;2023-03-16T17:44:51;10.90;36.80
60965;DHT22;46834;51.100;6.886;2023-03-16T17:47:23;10.90;36.80
60965;DHT22;46834;51.100;6.886;2023-03-16T17:49:51;10.80;36.80
60965;DHT22;46834;51.100;6.886;2023-03-16T17:52:22;10.80;36.80
60965;DHT22;46834;51.100;6.886;2023-03-16T17:54:51;10.80;36.90
60965;DHT22;46834;51.100;6.886;2023-03-16T17:57:31;10.70;36.80
60965;DHT22;46834;51.100;6.886;2023-03-16T17:59:59;10.70;36.90
60965;DHT22;46834;51.100;6.886;2023-03-16T18:02:55;10.70;36.80
60965;DHT22;46834;51.100;6.886;2023-03-16T18:05:30;10.70;36.90
60965;DHT22;46834;51.100;6.886;2023-03-16T18:08:00;10.60;36.80
60965;DHT22;46834;51.100;6.886;2023-03-16T18:10:37;10.60;36.80
60965;DHT22;46834;51.100;6.886;2023-03-16T18:13:09;10.50;36.90
60965;DHT22;46834;51.100;6.886;2023-03-16T18:15:52;10.50;36.80
60965;DHT22;46834;51.100;6.886;2023-03-16T18:18:23;10.50;36.80
60965;DHT22;46834;51.100;6.886;2023-03-16T18:20:51;10.50;36.90
60965;DHT22;46834;51.100;6.886;2023-03-16T18:25:48;10.40;36.80
60965;DHT22;46834;51.100;6.886;2023-03-16T18:28:17;10.40;36.80
60965;DHT22;46834;51.100;6.886;2023-03-16T18:30:45;10.40;36.80
60965;DHT22;46834;51.100;6.886;2023-03-16T18:33:27;10.40;36.90
60965;DHT22;46834;51.100;6.886;2023-03-16T18:36:05;10.30;36.90
60965;DHT22;46834;51.100;6.886;2023-03-16T18:38:43;10.30;36.80
60965;DHT22;46834;51.100;6.886;2023-03-16T18:43:48;10.30;36.90
60965;DHT22;46834;51.100;6.886;2023-03-16T18:48:59;10.20;36.90
60965;DHT22;46834;51.100;6.886;2023-03-16T18:51:28;10.20;36.90
60965;DHT22;46834;51.100;6.886;2023-03-16T18:53:55;10.10;36.90
60965;DHT22;46834;51.100;6.886;2023-03-16T18:56:24;10.10;36.90
60965;DHT22;46834;51.100;6.886;2023-03-16T18:58:52;10.20;37.00
60965;DHT22;46834;51.100;6.886;2023-03-16T19:01:30;10.10;37.00
60965;DHT22;46834;51.100;6.886;2023-03-16T19:04:00;10.10;37.00
60965;DHT22;46834;51.100;6.886;2023-03-16T19:06:29;10.10;37.00
60965;DHT22;46834;51.100;6.886;2023-03-16T19:09:04;10.10;37.00